sensor_id;sensor_type;location;lat;lon;timestamp;P1;durP1;ratioP1;P2;durP2;ratioP2
66175;SDS011;52977;44.816;20.538;2024-03-23T00:53:48;25.48;;;10.45;;
66175;SDS011;52977;44.816;20.538;2024-03-23T00:56:15;28.67;;;11.25;;
66175;SDS011;52977;44.816;20.538;2024-03-23T00:58:40;24.50;;;9.38;;
66175;SDS011;52977;44.816;20.538;2024-03-23T01:01:06;24.20;;;11.00;;
66175;SDS011;52977;44.816;20.538;2024-03-23T01:03:32;23.58;;;10.15;;
66175;SDS011;52977;44.816;20.538;2024-03-23T01:06:01;26.60;;;11.25;;
66175;SDS011;52977;44.816;20.538;2024-03-23T01:08:29;24.27;;;10.38;;
66175;SDS011;52977;44.816;20.538;2024-03-23T01:10:56;20.42;;;9.63;;
66175;SDS011;52977;44.816;20.538;2024-03-23T01:13:23;27.33;;;10.45;;
66175;SDS011;52977;44.816;20.538;2024-03-23T01:15:50;23.80;;;10.38;;
66175;SDS011;52977;44.816;20.538;2024-03-23T01:18:18;22.13;;;10.52;;
66175;SDS011;52977;44.816;20.538;2024-03-23T01:20:45;17.52;;;8.63;;
66175;SDS011;52977;44.816;20.538;2024-03-23T01:23:12;20.30;;;9.35;;
66175;SDS011;52977;44.816;20.538;2024-03-23T01:25:39;25.33;;;9.15;;
66175;SDS011;52977;44.816;20.538;2024-03-23T01:28:05;23.88;;;8.80;;
66175;SDS011;52977;44.816;20.538;2024-03-23T01:30:34;21.30;;;9.80;;
66175;SDS011;52977;44.816;20.538;2024-03-23T01:33:00;19.38;;;9.70;;
66175;SDS011;52977;44.816;20.538;2024-03-23T01:35:28;24.58;;;9.00;;
66175;SDS011;52977;44.816;20.538;2024-03-23T01:37:54;18.38;;;8.60;;
66175;SDS011;52977;44.816;20.538;2024-03-23T01:40:20;19.55;;;8.20;;
66175;SDS011;52977;44.816;20.538;2024-03-23T01:42:56;19.05;;;8.93;;
66175;SDS011;52977;44.816;20.538;2024-03-23T01:45:23;18.33;;;8.02;;
66175;SDS011;52977;44.816;20.538;2024-03-23T01:47:52;21.30;;;9.27;;
66175;SDS011;52977;44.816;20.538;2024-03-23T01:50:22;21.05;;;9.25;;
66175;SDS011;52977;44.816;20.538;2024-03-23T01:52:50;17.88;;;8.38;;
66175;SDS011;52977;44.816;20.538;2024-03-23T01:55:17;18.58;;;8.23;;
66175;SDS011;52977;44.816;20.538;2024-03-23T01:57:43;18.10;;;7.63;;
66175;SDS011;52977;44.816;20.538;2024-03-23T02:00:10;15.65;;;7.63;;
66175;SDS011;52977;44.816;20.538;2024-03-23T02:02:44;15.25;;;7.55;;
66175;SDS011;52977;44.816;20.538;2024-03-23T02:05:11;17.42;;;7.95;;
66175;SDS011;52977;44.816;20.538;2024-03-23T02:07:42;18.60;;;7.90;;
66175;SDS011;52977;44.816;20.538;2024-03-23T02:10:09;19.53;;;7.97;;
66175;SDS011;52977;44.816;20.538;2024-03-23T02:12:39;22.52;;;7.63;;
66175;SDS011;52977;44.816;20.538;2024-03-23T02:15:06;17.65;;;7.47;;
66175;SDS011;52977;44.816;20.538;2024-03-23T02:17:34;15.45;;;7.53;;
66175;SDS011;52977;44.816;20.538;2024-03-23T02:20:04;19.15;;;7.47;;
66175;SDS011;52977;44.816;20.538;2024-03-23T02:22:38;14.60;;;6.80;;
66175;SDS011;52977;44.816;20.538;2024-03-23T02:25:05;19.42;;;7.57;;
66175;SDS011;52977;44.816;20.538;2024-03-23T02:27:32;20.20;;;7.40;;
66175;SDS011;52977;44.816;20.538;2024-03-23T02:30:00;17.08;;;7.25;;
66175;SDS011;52977;44.816;20.538;2024-03-23T02:32:27;17.60;;;7.55;;
66175;SDS011;52977;44.816;20.538;2024-03-23T02:34:53;15.85;;;7.05;;
66175;SDS011;52977;44.816;20.538;2024-03-23T02:37:20;18.27;;;7.00;;
66175;SDS011;52977;44.816;20.538;2024-03-23T02:39:46;15.90;;;7.20;;
66175;SDS011;52977;44.816;20.538;2024-03-23T02:42:13;15.32;;;7.50;;
66175;SDS011;52977;44.816;20.538;2024-03-23T02:44:39;16.83;;;7.25;;
66175;SDS011;52977;44.816;20.538;2024-03-23T02:47:06;17.02;;;7.13;;
66175;SDS011;52977;44.816;20.538;2024-03-23T02:49:33;17.20;;;7.03;;
66175;SDS011;52977;44.816;20.538;2024-03-23T02:51:59;14.82;;;7.05;;
66175;SDS011;52977;44.816;20.538;2024-03-23T02:54:26;17.88;;;8.43;;
66175;SDS011;52977;44.816;20.538;2024-03-23T02:56:52;19.05;;;7.85;;
66175;SDS011;52977;44.816;20.538;2024-03-23T02:59:19;22.85;;;8.52;;
66175;SDS011;52977;44.816;20.538;2024-03-23T03:01:45;19.15;;;7.30;;
66175;SDS011;52977;44.816;20.538;2024-03-23T03:04:11;15.63;;;7.28;;
66175;SDS011;52977;44.816;20.538;2024-03-23T03:06:38;17.23;;;7.57;;
66175;SDS011;52977;44.816;20.538;2024-03-23T03:09:06;19.13;;;8.38;;
66175;SDS011;52977;44.816;20.538;2024-03-23T03:11:34;18.98;;;8.05;;
66175;SDS011;52977;44.816;20.538;2024-03-23T03:14:00;18.20;;;7.75;;
66175;SDS011;52977;44.816;20.538;2024-03-23T03:16:26;17.63;;;7.95;;
66175;SDS011;52977;44.816;20.538;2024-03-23T03:18:53;22.73;;;7.95;;
66175;SDS011;52977;44.816;20.538;2024-03-23T03:21:19;19.98;;;7.53;;
66175;SDS011;52977;44.816;20.538;2024-03-23T03:23:46;18.77;;;7.15;;
66175;SDS011;52977;44.816;20.538;2024-03-23T03:26:16;19.33;;;8.32;;
66175;SDS011;52977;44.816;20.538;2024-03-23T03:28:43;17.63;;;7.20;;
66175;SDS011;52977;44.816;20.538;2024-03-23T03:31:15;16.52;;;6.78;;
66175;SDS011;52977;44.816;20.538;2024-03-23T03:33:42;17.70;;;8.05;;
66175;SDS011;52977;44.816;20.538;2024-03-23T03:36:09;20.80;;;7.65;;
66175;SDS011;52977;44.816;20.538;2024-03-23T03:38:36;14.68;;;7.38;;
66175;SDS011;52977;44.816;20.538;2024-03-23T03:41:03;17.90;;;8.00;;
66175;SDS011;52977;44.816;20.538;2024-03-23T03:43:30;18.48;;;7.97;;
66175;SDS011;52977;44.816;20.538;2024-03-23T03:45:56;16.05;;;7.35;;
66175;SDS011;52977;44.816;20.538;2024-03-23T03:48:25;14.88;;;6.80;;
66175;SDS011;52977;44.816;20.538;2024-03-23T03:50:52;18.05;;;7.78;;
66175;SDS011;52977;44.816;20.538;2024-03-23T03:53:19;18.05;;;7.72;;
66175;SDS011;52977;44.816;20.538;2024-03-23T03:55:44;21.80;;;8.10;;
66175;SDS011;52977;44.816;20.538;2024-03-23T03:58:11;19.42;;;8.73;;
66175;SDS011;52977;44.816;20.538;2024-03-23T04:00:38;22.30;;;7.18;;
66175;SDS011;52977;44.816;20.538;2024-03-23T04:03:04;16.08;;;7.47;;
66175;SDS011;52977;44.816;20.538;2024-03-23T04:05:31;15.43;;;7.10;;
66175;SDS011;52977;44.816;20.538;2024-03-23T04:07:58;16.67;;;7.57;;
66175;SDS011;52977;44.816;20.538;2024-03-23T04:10:24;19.02;;;8.30;;
66175;SDS011;52977;44.816;20.538;2024-03-23T04:12:50;15.27;;;7.32;;
66175;SDS011;52977;44.816;20.538;2024-03-23T04:15:16;18.77;;;7.80;;
66175;SDS011;52977;44.816;20.538;2024-03-23T04:17:41;16.23;;;7.53;;
66175;SDS011;52977;44.816;20.538;2024-03-23T04:20:08;17.30;;;7.40;;
66175;SDS011;52977;44.816;20.538;2024-03-23T04:22:37;16.20;;;7.35;;
66175;SDS011;52977;44.816;20.538;2024-03-23T04:25:04;17.35;;;7.80;;
66175;SDS011;52977;44.816;20.538;2024-03-23T04:27:32;17.85;;;8.00;;
66175;SDS011;52977;44.816;20.538;2024-03-23T04:29:59;15.82;;;7.63;;
66175;SDS011;52977;44.816;20.538;2024-03-23T04:32:29;17.43;;;8.03;;
66175;SDS011;52977;44.816;20.538;2024-03-23T04:34:56;18.92;;;8.02;;
66175;SDS011;52977;44.816;20.538;2024-03-23T04:37:22;21.17;;;7.75;;
66175;SDS011;52977;44.816;20.538;2024-03-23T04:39:49;21.00;;;7.85;;
66175;SDS011;52977;44.816;20.538;2024-03-23T04:42:16;18.00;;;8.38;;
66175;SDS011;52977;44.816;20.538;2024-03-23T04:44:43;21.83;;;8.25;;
66175;SDS011;52977;44.816;20.538;2024-03-23T04:47:10;20.85;;;9.07;;
66175;SDS011;52977;44.816;20.538;2024-03-23T04:49:38;18.13;;;8.52;;
66175;SDS011;52977;44.816;20.538;2024-03-23T04:52:04;19.13;;;8.68;;
66175;SDS011;52977;44.816;20.538;2024-03-23T04:54:31;20.50;;;8.98;;
66175;SDS011;52977;44.816;20.538;2024-03-23T04:56:58;20.08;;;8.68;;
66175;SDS011;52977;44.816;20.538;2024-03-23T04:59:25;19.45;;;8.35;;
66175;SDS011;52977;44.816;20.538;2024-03-23T05:01:52;19.67;;;8.32;;
66175;SDS011;52977;44.816;20.538;2024-03-23T05:04:18;20.13;;;8.88;;
66175;SDS011;52977;44.816;20.538;2024-03-23T05:06:45;22.60;;;8.27;;
66175;SDS011;52977;44.816;20.538;2024-03-23T05:09:11;22.27;;;9.05;;
66175;SDS011;52977;44.816;20.538;2024-03-23T05:11:38;19.30;;;8.55;;
66175;SDS011;52977;44.816;20.538;2024-03-23T05:14:04;18.15;;;8.90;;
66175;SDS011;52977;44.816;20.538;2024-03-23T05:16:31;22.92;;;9.07;;
66175;SDS011;52977;44.816;20.538;2024-03-23T05:18:57;18.88;;;8.07;;
66175;SDS011;52977;44.816;20.538;2024-03-23T05:21:24;24.05;;;11.38;;
66175;SDS011;52977;44.816;20.538;2024-03-23T05:23:50;24.77;;;11.43;;
66175;SDS011;52977;44.816;20.538;2024-03-23T05:26:17;29.55;;;11.68;;
66175;SDS011;52977;44.816;20.538;2024-03-23T05:28:44;26.63;;;12.07;;
66175;SDS011;52977;44.816;20.538;2024-03-23T05:31:10;26.15;;;12.00;;
66175;SDS011;52977;44.816;20.538;2024-03-23T05:33:36;21.42;;;10.02;;
66175;SDS011;52977;44.816;20.538;2024-03-23T05:36:06;20.25;;;9.80;;
66175;SDS011;52977;44.816;20.538;2024-03-23T05:41:03;18.73;;;8.25;;
66175;SDS011;52977;44.816;20.538;2024-03-23T05:43:30;22.75;;;8.65;;
66175;SDS011;52977;44.816;20.538;2024-03-23T05:45:57;19.85;;;8.48;;
66175;SDS011;52977;44.816;20.538;2024-03-23T05:48:25;18.52;;;7.70;;
66175;SDS011;52977;44.816;20.538;2024-03-23T05:50:52;22.73;;;8.48;;
66175;SDS011;52977;44.816;20.538;2024-03-23T05:53:19;16.05;;;7.70;;
66175;SDS011;52977;44.816;20.538;2024-03-23T05:55:49;18.23;;;7.70;;
66175;SDS011;52977;44.816;20.538;2024-03-23T05:58:19;18.63;;;7.60;;
66175;SDS011;52977;44.816;20.538;2024-03-23T06:00:48;18.00;;;7.78;;
66175;SDS011;52977;44.816;20.538;2024-03-23T06:03:14;16.98;;;7.45;;
66175;SDS011;52977;44.816;20.538;2024-03-23T06:05:40;18.00;;;8.15;;
66175;SDS011;52977;44.816;20.538;2024-03-23T06:08:07;16.40;;;7.78;;
66175;SDS011;52977;44.816;20.538;2024-03-23T06:10:35;16.67;;;7.70;;
66175;SDS011;52977;44.816;20.538;2024-03-23T06:13:00;14.75;;;6.68;;
66175;SDS011;52977;44.816;20.538;2024-03-23T06:15:27;17.55;;;7.40;;
66175;SDS011;52977;44.816;20.538;2024-03-23T06:17:52;17.02;;;7.22;;
66175;SDS011;52977;44.816;20.538;2024-03-23T06:20:18;14.88;;;6.30;;
66175;SDS011;52977;44.816;20.538;2024-03-23T06:22:44;16.38;;;7.38;;
66175;SDS011;52977;44.816;20.538;2024-03-23T06:25:10;17.13;;;6.50;;
66175;SDS011;52977;44.816;20.538;2024-03-23T06:27:37;15.82;;;7.20;;
66175;SDS011;52977;44.816;20.538;2024-03-23T06:30:04;16.70;;;7.35;;
66175;SDS011;52977;44.816;20.538;2024-03-23T06:32:32;17.30;;;7.22;;
66175;SDS011;52977;44.816;20.538;2024-03-23T06:34:59;13.93;;;6.78;;
66175;SDS011;52977;44.816;20.538;2024-03-23T06:37:26;14.88;;;6.85;;
66175;SDS011;52977;44.816;20.538;2024-03-23T06:39:52;16.25;;;6.82;;
66175;SDS011;52977;44.816;20.538;2024-03-23T06:42:19;17.35;;;7.47;;
66175;SDS011;52977;44.816;20.538;2024-03-23T06:44:44;14.52;;;7.13;;
66175;SDS011;52977;44.816;20.538;2024-03-23T06:47:11;15.55;;;6.95;;
66175;SDS011;52977;44.816;20.538;2024-03-23T06:49:38;17.55;;;7.75;;
66175;SDS011;52977;44.816;20.538;2024-03-23T06:52:04;14.90;;;6.85;;
66175;SDS011;52977;44.816;20.538;2024-03-23T06:54:31;19.15;;;7.55;;
66175;SDS011;52977;44.816;20.538;2024-03-23T06:56:57;16.23;;;7.78;;
66175;SDS011;52977;44.816;20.538;2024-03-23T06:59:24;19.73;;;7.78;;
66175;SDS011;52977;44.816;20.538;2024-03-23T07:01:50;18.52;;;8.43;;
66175;SDS011;52977;44.816;20.538;2024-03-23T07:04:17;34.75;;;14.00;;
66175;SDS011;52977;44.816;20.538;2024-03-23T07:06:44;37.92;;;14.27;;
66175;SDS011;52977;44.816;20.538;2024-03-23T07:09:11;34.20;;;14.25;;
66175;SDS011;52977;44.816;20.538;2024-03-23T07:11:37;27.38;;;12.82;;
66175;SDS011;52977;44.816;20.538;2024-03-23T07:14:03;26.42;;;10.02;;
66175;SDS011;52977;44.816;20.538;2024-03-23T07:16:29;23.67;;;10.63;;
66175;SDS011;52977;44.816;20.538;2024-03-23T07:18:55;20.95;;;9.65;;
66175;SDS011;52977;44.816;20.538;2024-03-23T07:21:21;24.90;;;9.65;;
66175;SDS011;52977;44.816;20.538;2024-03-23T07:23:47;19.27;;;8.38;;
66175;SDS011;52977;44.816;20.538;2024-03-23T07:26:13;19.02;;;8.27;;
66175;SDS011;52977;44.816;20.538;2024-03-23T07:28:39;18.65;;;8.00;;
66175;SDS011;52977;44.816;20.538;2024-03-23T07:31:12;19.98;;;8.20;;
66175;SDS011;52977;44.816;20.538;2024-03-23T07:33:43;20.17;;;10.50;;
66175;SDS011;52977;44.816;20.538;2024-03-23T07:36:14;23.75;;;10.40;;
66175;SDS011;52977;44.816;20.538;2024-03-23T07:38:41;20.60;;;9.35;;
66175;SDS011;52977;44.816;20.538;2024-03-23T07:41:09;25.38;;;10.05;;
66175;SDS011;52977;44.816;20.538;2024-03-23T07:43:39;26.05;;;10.82;;
66175;SDS011;52977;44.816;20.538;2024-03-23T07:46:06;19.48;;;9.45;;
66175;SDS011;52977;44.816;20.538;2024-03-23T07:48:32;17.88;;;7.82;;
66175;SDS011;52977;44.816;20.538;2024-03-23T07:53:28;15.07;;;7.30;;
66175;SDS011;52977;44.816;20.538;2024-03-23T07:55:55;14.23;;;7.40;;
66175;SDS011;52977;44.816;20.538;2024-03-23T07:58:22;16.42;;;7.55;;
66175;SDS011;52977;44.816;20.538;2024-03-23T08:00:48;15.88;;;7.32;;
66175;SDS011;52977;44.816;20.538;2024-03-23T08:03:14;14.63;;;7.32;;
66175;SDS011;52977;44.816;20.538;2024-03-23T08:05:39;11.23;;;6.32;;
66175;SDS011;52977;44.816;20.538;2024-03-23T08:08:06;12.50;;;6.47;;
66175;SDS011;52977;44.816;20.538;2024-03-23T08:10:33;13.80;;;6.97;;
66175;SDS011;52977;44.816;20.538;2024-03-23T08:12:59;13.75;;;7.07;;
66175;SDS011;52977;44.816;20.538;2024-03-23T08:15:26;15.45;;;7.28;;
66175;SDS011;52977;44.816;20.538;2024-03-23T08:17:52;15.48;;;7.20;;
66175;SDS011;52977;44.816;20.538;2024-03-23T08:20:19;14.48;;;7.80;;
66175;SDS011;52977;44.816;20.538;2024-03-23T08:22:46;24.83;;;10.38;;
66175;SDS011;52977;44.816;20.538;2024-03-23T08:25:12;21.95;;;9.73;;
66175;SDS011;52977;44.816;20.538;2024-03-23T08:27:39;20.00;;;10.40;;
66175;SDS011;52977;44.816;20.538;2024-03-23T08:30:05;21.00;;;9.80;;
66175;SDS011;52977;44.816;20.538;2024-03-23T08:32:33;19.67;;;9.65;;
66175;SDS011;52977;44.816;20.538;2024-03-23T08:34:59;22.85;;;9.85;;
66175;SDS011;52977;44.816;20.538;2024-03-23T08:37:26;19.95;;;9.40;;
66175;SDS011;52977;44.816;20.538;2024-03-23T08:39:53;18.23;;;9.82;;
66175;SDS011;52977;44.816;20.538;2024-03-23T08:42:19;17.90;;;9.68;;
66175;SDS011;52977;44.816;20.538;2024-03-23T08:44:46;17.73;;;8.70;;
66175;SDS011;52977;44.816;20.538;2024-03-23T08:47:15;25.17;;;10.55;;
66175;SDS011;52977;44.816;20.538;2024-03-23T08:49:42;19.23;;;10.05;;
66175;SDS011;52977;44.816;20.538;2024-03-23T08:52:10;18.98;;;9.82;;
66175;SDS011;52977;44.816;20.538;2024-03-23T08:54:36;20.52;;;10.20;;
66175;SDS011;52977;44.816;20.538;2024-03-23T08:57:03;26.27;;;10.80;;
66175;SDS011;52977;44.816;20.538;2024-03-23T08:59:30;23.67;;;10.95;;
66175;SDS011;52977;44.816;20.538;2024-03-23T09:01:56;18.80;;;8.50;;
66175;SDS011;52977;44.816;20.538;2024-03-23T09:04:23;18.20;;;7.65;;
66175;SDS011;52977;44.816;20.538;2024-03-23T09:06:49;15.30;;;7.78;;
66175;SDS011;52977;44.816;20.538;2024-03-23T09:09:16;14.90;;;6.65;;
66175;SDS011;52977;44.816;20.538;2024-03-23T09:11:42;18.58;;;8.65;;
66175;SDS011;52977;44.816;20.538;2024-03-23T09:14:09;15.13;;;6.80;;
66175;SDS011;52977;44.816;20.538;2024-03-23T09:16:35;17.83;;;6.78;;
66175;SDS011;52977;44.816;20.538;2024-03-23T09:19:02;12.75;;;6.90;;
66175;SDS011;52977;44.816;20.538;2024-03-23T09:21:29;13.48;;;6.35;;
66175;SDS011;52977;44.816;20.538;2024-03-23T09:23:56;17.17;;;8.02;;
66175;SDS011;52977;44.816;20.538;2024-03-23T09:26:22;21.70;;;8.32;;
66175;SDS011;52977;44.816;20.538;2024-03-23T09:28:49;14.43;;;7.40;;
66175;SDS011;52977;44.816;20.538;2024-03-23T09:31:16;11.23;;;5.70;;
66175;SDS011;52977;44.816;20.538;2024-03-23T09:33:43;18.67;;;7.63;;
66175;SDS011;52977;44.816;20.538;2024-03-23T09:36:10;17.38;;;6.90;;
66175;SDS011;52977;44.816;20.538;2024-03-23T09:38:36;17.50;;;8.75;;
66175;SDS011;52977;44.816;20.538;2024-03-23T09:41:06;15.13;;;6.82;;
66175;SDS011;52977;44.816;20.538;2024-03-23T09:43:34;17.75;;;8.52;;
66175;SDS011;52977;44.816;20.538;2024-03-23T09:46:01;23.85;;;10.55;;
66175;SDS011;52977;44.816;20.538;2024-03-23T09:48:29;19.73;;;8.82;;
66175;SDS011;52977;44.816;20.538;2024-03-23T09:50:55;10.45;;;4.93;;
66175;SDS011;52977;44.816;20.538;2024-03-23T09:53:21;12.63;;;5.95;;
66175;SDS011;52977;44.816;20.538;2024-03-23T09:55:48;13.88;;;5.93;;
66175;SDS011;52977;44.816;20.538;2024-03-23T09:58:15;14.00;;;7.80;;
66175;SDS011;52977;44.816;20.538;2024-03-23T10:00:43;13.13;;;6.80;;
66175;SDS011;52977;44.816;20.538;2024-03-23T10:03:10;10.75;;;4.80;;
66175;SDS011;52977;44.816;20.538;2024-03-23T10:05:37;11.70;;;5.13;;
66175;SDS011;52977;44.816;20.538;2024-03-23T10:10:43;7.22;;;3.33;;
66175;SDS011;52977;44.816;20.538;2024-03-23T10:13:10;6.65;;;3.30;;
66175;SDS011;52977;44.816;20.538;2024-03-23T10:15:38;9.57;;;4.53;;
66175;SDS011;52977;44.816;20.538;2024-03-23T10:18:17;9.90;;;3.85;;
66175;SDS011;52977;44.816;20.538;2024-03-23T10:23:55;7.95;;;3.63;;
66175;SDS011;52977;44.816;20.538;2024-03-23T10:26:23;6.55;;;3.35;;
66175;SDS011;52977;44.816;20.538;2024-03-23T10:29:10;9.23;;;4.07;;
66175;SDS011;52977;44.816;20.538;2024-03-23T10:31:38;9.77;;;4.78;;
66175;SDS011;52977;44.816;20.538;2024-03-23T10:34:07;11.48;;;4.13;;
66175;SDS011;52977;44.816;20.538;2024-03-23T10:36:34;6.95;;;3.05;;
66175;SDS011;52977;44.816;20.538;2024-03-23T10:39:04;7.30;;;3.00;;
66175;SDS011;52977;44.816;20.538;2024-03-23T10:41:32;6.10;;;3.22;;
66175;SDS011;52977;44.816;20.538;2024-03-23T10:43:59;9.20;;;3.60;;
66175;SDS011;52977;44.816;20.538;2024-03-23T10:46:28;10.43;;;3.53;;
66175;SDS011;52977;44.816;20.538;2024-03-23T10:48:55;6.85;;;3.85;;
66175;SDS011;52977;44.816;20.538;2024-03-23T10:51:21;9.77;;;4.82;;
66175;SDS011;52977;44.816;20.538;2024-03-23T10:53:48;10.18;;;4.68;;
66175;SDS011;52977;44.816;20.538;2024-03-23T10:56:18;11.23;;;5.55;;
66175;SDS011;52977;44.816;20.538;2024-03-23T10:58:46;7.75;;;3.78;;
66175;SDS011;52977;44.816;20.538;2024-03-23T11:01:15;11.38;;;4.78;;
66175;SDS011;52977;44.816;20.538;2024-03-23T11:03:45;10.70;;;4.80;;
66175;SDS011;52977;44.816;20.538;2024-03-23T11:06:33;8.90;;;4.18;;
66175;SDS011;52977;44.816;20.538;2024-03-23T11:14:52;6.18;;;2.72;;
66175;SDS011;52977;44.816;20.538;2024-03-23T11:17:19;7.07;;;2.60;;
66175;SDS011;52977;44.816;20.538;2024-03-23T11:20:00;5.63;;;2.30;;
66175;SDS011;52977;44.816;20.538;2024-03-23T11:22:40;4.88;;;2.30;;
66175;SDS011;52977;44.816;20.538;2024-03-23T11:27:48;8.80;;;3.42;;
66175;SDS011;52977;44.816;20.538;2024-03-23T11:30:20;6.50;;;2.88;;
66175;SDS011;52977;44.816;20.538;2024-03-23T11:32:49;16.75;;;7.32;;
66175;SDS011;52977;44.816;20.538;2024-03-23T11:35:29;8.55;;;4.25;;
66175;SDS011;52977;44.816;20.538;2024-03-23T11:40:29;6.70;;;3.17;;
66175;SDS011;52977;44.816;20.538;2024-03-23T11:43:00;7.65;;;3.95;;
66175;SDS011;52977;44.816;20.538;2024-03-23T11:45:29;8.20;;;3.80;;
66175;SDS011;52977;44.816;20.538;2024-03-23T11:50:36;13.73;;;6.15;;
66175;SDS011;52977;44.816;20.538;2024-03-23T11:53:17;10.23;;;4.80;;
66175;SDS011;52977;44.816;20.538;2024-03-23T11:58:21;6.95;;;3.65;;
66175;SDS011;52977;44.816;20.538;2024-03-23T12:00:55;19.92;;;8.05;;
66175;SDS011;52977;44.816;20.538;2024-03-23T12:03:24;11.15;;;4.25;;
66175;SDS011;52977;44.816;20.538;2024-03-23T12:05:52;12.00;;;5.05;;
66175;SDS011;52977;44.816;20.538;2024-03-23T12:08:29;11.05;;;5.10;;
66175;SDS011;52977;44.816;20.538;2024-03-23T12:11:16;8.90;;;4.10;;
66175;SDS011;52977;44.816;20.538;2024-03-23T12:13:44;8.00;;;4.18;;
66175;SDS011;52977;44.816;20.538;2024-03-23T12:16:12;7.85;;;3.60;;
66175;SDS011;52977;44.816;20.538;2024-03-23T12:18:48;6.72;;;3.08;;
66175;SDS011;52977;44.816;20.538;2024-03-23T12:21:18;5.95;;;2.70;;
66175;SDS011;52977;44.816;20.538;2024-03-23T12:23:45;5.80;;;2.30;;
66175;SDS011;52977;44.816;20.538;2024-03-23T12:26:12;4.50;;;2.38;;
66175;SDS011;52977;44.816;20.538;2024-03-23T12:28:39;6.28;;;2.55;;
66175;SDS011;52977;44.816;20.538;2024-03-23T12:31:06;7.05;;;2.65;;
66175;SDS011;52977;44.816;20.538;2024-03-23T12:33:32;5.55;;;2.78;;
66175;SDS011;52977;44.816;20.538;2024-03-23T12:35:59;7.07;;;3.45;;
66175;SDS011;52977;44.816;20.538;2024-03-23T12:38:25;17.20;;;7.90;;
66175;SDS011;52977;44.816;20.538;2024-03-23T12:40:52;18.00;;;8.68;;
66175;SDS011;52977;44.816;20.538;2024-03-23T12:43:18;11.93;;;5.55;;
66175;SDS011;52977;44.816;20.538;2024-03-23T12:45:48;8.65;;;4.28;;
66175;SDS011;52977;44.816;20.538;2024-03-23T12:48:16;8.82;;;4.15;;
66175;SDS011;52977;44.816;20.538;2024-03-23T12:50:43;5.95;;;2.75;;
66175;SDS011;52977;44.816;20.538;2024-03-23T12:53:09;6.43;;;2.38;;
66175;SDS011;52977;44.816;20.538;2024-03-23T12:55:36;6.35;;;2.70;;
66175;SDS011;52977;44.816;20.538;2024-03-23T12:58:03;6.95;;;3.17;;
66175;SDS011;52977;44.816;20.538;2024-03-23T13:00:30;5.60;;;2.90;;
66175;SDS011;52977;44.816;20.538;2024-03-23T13:02:57;5.55;;;2.75;;
66175;SDS011;52977;44.816;20.538;2024-03-23T13:05:23;9.40;;;4.68;;
66175;SDS011;52977;44.816;20.538;2024-03-23T13:07:50;8.98;;;4.45;;
66175;SDS011;52977;44.816;20.538;2024-03-23T13:10:16;8.32;;;3.75;;
66175;SDS011;52977;44.816;20.538;2024-03-23T13:12:43;12.88;;;5.53;;
66175;SDS011;52977;44.816;20.538;2024-03-23T13:15:10;14.35;;;6.55;;
66175;SDS011;52977;44.816;20.538;2024-03-23T13:17:36;11.65;;;5.18;;
66175;SDS011;52977;44.816;20.538;2024-03-23T13:20:03;10.93;;;5.60;;
66175;SDS011;52977;44.816;20.538;2024-03-23T13:22:30;11.93;;;5.03;;
66175;SDS011;52977;44.816;20.538;2024-03-23T13:24:57;6.25;;;3.13;;
66175;SDS011;52977;44.816;20.538;2024-03-23T13:27:23;5.57;;;3.00;;
66175;SDS011;52977;44.816;20.538;2024-03-23T13:29:49;9.90;;;4.75;;
66175;SDS011;52977;44.816;20.538;2024-03-23T13:32:16;9.27;;;3.42;;
66175;SDS011;52977;44.816;20.538;2024-03-23T13:34:43;11.25;;;3.20;;
66175;SDS011;52977;44.816;20.538;2024-03-23T13:37:10;6.90;;;3.30;;
66175;SDS011;52977;44.816;20.538;2024-03-23T13:39:36;8.15;;;3.10;;
66175;SDS011;52977;44.816;20.538;2024-03-23T13:42:03;6.95;;;2.95;;
66175;SDS011;52977;44.816;20.538;2024-03-23T13:44:30;6.45;;;2.90;;
66175;SDS011;52977;44.816;20.538;2024-03-23T13:46:57;9.50;;;3.75;;
66175;SDS011;52977;44.816;20.538;2024-03-23T13:51:56;8.32;;;4.07;;
66175;SDS011;52977;44.816;20.538;2024-03-23T13:54:24;6.93;;;3.35;;
66175;SDS011;52977;44.816;20.538;2024-03-23T13:56:51;6.78;;;2.80;;
66175;SDS011;52977;44.816;20.538;2024-03-23T13:59:18;9.00;;;3.40;;
66175;SDS011;52977;44.816;20.538;2024-03-23T14:01:45;7.72;;;3.13;;
66175;SDS011;52977;44.816;20.538;2024-03-23T14:04:17;7.53;;;2.92;;
66175;SDS011;52977;44.816;20.538;2024-03-23T14:06:46;6.10;;;2.90;;
66175;SDS011;52977;44.816;20.538;2024-03-23T14:09:13;8.35;;;3.88;;
66175;SDS011;52977;44.816;20.538;2024-03-23T14:11:47;8.65;;;4.18;;
66175;SDS011;52977;44.816;20.538;2024-03-23T14:14:14;7.18;;;3.72;;
66175;SDS011;52977;44.816;20.538;2024-03-23T14:16:45;6.80;;;2.95;;
66175;SDS011;52977;44.816;20.538;2024-03-23T14:19:11;5.45;;;2.92;;
66175;SDS011;52977;44.816;20.538;2024-03-23T14:21:38;4.50;;;3.00;;
66175;SDS011;52977;44.816;20.538;2024-03-23T14:24:05;6.03;;;2.65;;
66175;SDS011;52977;44.816;20.538;2024-03-23T14:26:31;6.50;;;3.03;;
66175;SDS011;52977;44.816;20.538;2024-03-23T14:28:59;6.00;;;2.72;;
66175;SDS011;52977;44.816;20.538;2024-03-23T14:31:25;8.95;;;3.10;;
66175;SDS011;52977;44.816;20.538;2024-03-23T14:33:52;6.35;;;3.17;;
66175;SDS011;52977;44.816;20.538;2024-03-23T14:36:18;4.82;;;2.58;;
66175;SDS011;52977;44.816;20.538;2024-03-23T14:38:48;5.55;;;3.00;;
66175;SDS011;52977;44.816;20.538;2024-03-23T14:41:15;6.53;;;2.90;;
66175;SDS011;52977;44.816;20.538;2024-03-23T14:43:42;5.72;;;2.90;;
66175;SDS011;52977;44.816;20.538;2024-03-23T14:46:14;5.45;;;3.20;;
66175;SDS011;52977;44.816;20.538;2024-03-23T14:48:43;5.03;;;2.55;;
66175;SDS011;52977;44.816;20.538;2024-03-23T14:51:12;5.65;;;2.72;;
66175;SDS011;52977;44.816;20.538;2024-03-23T14:53:40;5.07;;;2.83;;
66175;SDS011;52977;44.816;20.538;2024-03-23T14:56:07;6.82;;;2.80;;
66175;SDS011;52977;44.816;20.538;2024-03-23T14:58:37;8.18;;;2.85;;
66175;SDS011;52977;44.816;20.538;2024-03-23T15:01:05;7.80;;;2.97;;
66175;SDS011;52977;44.816;20.538;2024-03-23T15:03:51;5.07;;;2.88;;
66175;SDS011;52977;44.816;20.538;2024-03-23T15:06:18;4.55;;;2.60;;
66175;SDS011;52977;44.816;20.538;2024-03-23T15:08:44;6.05;;;2.60;;
66175;SDS011;52977;44.816;20.538;2024-03-23T15:11:10;6.05;;;2.70;;
66175;SDS011;52977;44.816;20.538;2024-03-23T15:13:37;6.30;;;2.83;;
66175;SDS011;52977;44.816;20.538;2024-03-23T15:16:04;7.00;;;3.05;;
66175;SDS011;52977;44.816;20.538;2024-03-23T15:18:32;7.13;;;2.72;;
66175;SDS011;52977;44.816;20.538;2024-03-23T15:21:00;6.75;;;3.05;;
66175;SDS011;52977;44.816;20.538;2024-03-23T15:23:32;7.15;;;2.88;;
66175;SDS011;52977;44.816;20.538;2024-03-23T15:25:59;5.03;;;2.60;;
66175;SDS011;52977;44.816;20.538;2024-03-23T15:28:27;5.05;;;2.85;;
66175;SDS011;52977;44.816;20.538;2024-03-23T15:31:06;5.63;;;2.78;;
66175;SDS011;52977;44.816;20.538;2024-03-23T15:33:33;5.43;;;2.65;;
66175;SDS011;52977;44.816;20.538;2024-03-23T15:35:59;9.93;;;3.17;;
66175;SDS011;52977;44.816;20.538;2024-03-23T15:38:25;6.07;;;3.00;;
66175;SDS011;52977;44.816;20.538;2024-03-23T15:40:51;6.75;;;2.90;;
66175;SDS011;52977;44.816;20.538;2024-03-23T15:43:18;5.65;;;2.78;;
66175;SDS011;52977;44.816;20.538;2024-03-23T15:45:44;5.68;;;3.20;;
66175;SDS011;52977;44.816;20.538;2024-03-23T15:48:11;7.22;;;3.25;;